Time;durP1;ratioP1;P1;durP2;ratioP2;P2;SDS_P1;SDS_P2;PMS_P1;PMS_P2;Temp;Humidity;BMP_temperature;BMP_pressure;BME280_temperature;BME280_humidity;BME280_pressure;Samples;Min_cycle;Max_cycle;Signal;HPM_P1;HPM_P2
2022/05/21 00:00:06;;;;;;;6.77;2.03;;;;;11.50;101578.00;;;;9961550;29;20748;-77
2022/05/21 00:05:09;;;;;;;7.77;2.30;;;;;11.50;101580.00;;;;9969640;29;20255;-78
2022/05/21 00:10:13;;;;;;;3.60;2.17;;;;;11.50;101582.00;;;;9999772;29;20223;-78
2022/05/21 00:15:19;;;;;;;6.17;2.27;;;;;11.40;101586.00;;;;9961007;29;20846;-78
2022/05/21 00:25:44;;;;;;;4.60;1.67;;;;;11.30;101577.00;;;;9976658;29;20213;-77
2022/05/21 00:30:45;;;;;;;12.40;2.07;;;;;11.30;101568.00;;;;10005988;29;20233;-78
2022/05/21 00:35:49;;;;;;;9.60;2.13;;;;;11.30;101573.00;;;;9997507;29;20209;-78
2022/05/21 00:40:53;;;;;;;9.60;2.73;;;;;11.30;101584.00;;;;10021043;29;20222;-77
2022/05/21 00:45:56;;;;;;;5.63;2.77;;;;;11.30;101583.00;;;;9990929;29;20213;-78
2022/05/21 00:50:58;;;;;;;10.57;2.30;;;;;11.20;101586.00;;;;9975956;29;20213;-77
2022/05/21 00:56:00;;;;;;;8.07;2.23;;;;;11.20;101579.00;;;;9990702;29;20189;-78
2022/05/21 01:01:02;;;;;;;6.87;2.20;;;;;11.10;101582.00;;;;10826739;24;20231;-77
2022/05/21 01:06:05;;;;;;;8.57;1.87;;;;;11.10;101580.00;;;;10046649;29;20221;-77
2022/05/21 01:11:15;;;;;;;6.53;2.07;;;;;11.10;101590.00;;;;10040122;29;20268;-77
2022/05/21 01:16:17;;;;;;;5.10;2.00;;;;;11.10;101585.00;;;;10017763;29;20201;-77
2022/05/21 01:21:19;;;;;;;7.53;2.30;;;;;11.10;101585.00;;;;10005030;29;20237;-77
2022/05/21 01:26:22;;;;;;;6.03;2.70;;;;;11.10;101565.00;;;;10023973;29;20265;-77
2022/05/21 01:31:23;;;;;;;13.67;2.80;;;;;11.10;101569.00;;;;10017254;29;20216;-77
2022/05/21 01:36:25;;;;;;;7.77;2.80;;;;;11.10;101562.00;;;;10055089;29;20283;-77
2022/05/21 01:41:28;;;;;;;11.53;2.70;;;;;11.10;101572.00;;;;10025413;29;20220;-77
2022/05/21 01:46:29;;;;;;;5.93;2.30;;;;;11.00;101556.00;;;;10007051;29;20264;-77
2022/05/21 01:51:31;;;;;;;6.77;2.60;;;;;11.00;101569.00;;;;10024583;29;20236;-77
2022/05/21 01:56:33;;;;;;;4.90;2.40;;;;;11.10;101570.00;;;;9999526;29;20201;-77
2022/05/21 02:01:35;;;;;;;7.63;2.80;;;;;11.10;101575.00;;;;10010957;29;20261;-77
2022/05/21 02:06:37;;;;;;;6.17;2.23;;;;;11.00;101571.00;;;;10035634;29;20201;-77
2022/05/21 02:11:40;;;;;;;9.00;2.73;;;;;11.00;101582.00;;;;10038936;29;20240;-77
2022/05/21 02:16:42;;;;;;;5.90;2.50;;;;;11.00;101567.00;;;;10038604;29;20203;-77
2022/05/21 02:21:45;;;;;;;6.67;2.47;;;;;11.00;101572.00;;;;10024656;29;20235;-77
2022/05/21 02:26:48;;;;;;;5.23;2.30;;;;;11.00;101573.00;;;;10008315;29;20216;-77
2022/05/21 02:31:51;;;;;;;6.03;2.50;;;;;10.90;101575.00;;;;10024907;29;20213;-77
2022/05/21 02:47:34;;;;;;;8.63;3.10;;;;;10.80;101562.00;;;;10054716;29;20307;-77
2022/05/21 02:52:37;;;;;;;5.53;2.70;;;;;10.70;101570.00;;;;10024785;29;20671;-77
2022/05/21 02:57:39;;;;;;;6.27;2.60;;;;;10.70;101576.00;;;;10002788;29;20228;-77
2022/05/21 03:02:41;;;;;;;10.70;2.80;;;;;10.70;101587.00;;;;10009402;29;20233;-77
2022/05/21 03:07:47;;;;;;;11.00;4.83;;;;;10.60;101593.00;;;;10042747;29;20526;-77
2022/05/21 03:12:54;;;;;;;5.97;3.10;;;;;10.60;101584.00;;;;10012683;29;20209;-77
2022/05/21 03:17:56;;;;;;;6.57;3.20;;;;;10.60;101597.00;;;;10016426;29;20197;-77
2022/05/21 03:22:58;;;;;;;9.03;3.50;;;;;10.60;101596.00;;;;10011157;29;20208;-77
2022/05/21 03:28:01;;;;;;;11.00;3.70;;;;;10.60;101580.00;;;;10056121;29;20218;-77
2022/05/21 03:33:03;;;;;;;11.40;3.47;;;;;10.60;101591.00;;;;10008491;29;20285;-77
2022/05/21 03:38:12;;;;;;;6.77;3.47;;;;;10.60;101589.00;;;;10007524;29;20232;-77
2022/05/21 03:43:14;;;;;;;9.20;3.03;;;;;10.60;101599.00;;;;10026020;29;20212;-77
2022/05/21 03:48:16;;;;;;;11.50;4.23;;;;;10.50;101594.00;;;;10009357;29;20212;-76
2022/05/21 03:53:17;;;;;;;7.77;3.97;;;;;10.60;101602.00;;;;10026786;29;20268;-76
2022/05/21 03:58:19;;;;;;;11.80;3.70;;;;;10.60;101595.00;;;;10012012;29;20201;-77
2022/05/21 04:03:21;;;;;;;12.03;4.30;;;;;10.70;101617.00;;;;10020235;29;20289;-77
2022/05/21 04:08:24;;;;;;;12.00;4.60;;;;;10.80;101629.00;;;;10039847;29;20306;-77
2022/05/21 04:13:26;;;;;;;15.53;4.83;;;;;11.10;101626.00;;;;10024937;29;20253;-76
2022/05/21 04:18:27;;;;;;;14.33;5.60;;;;;11.30;101630.00;;;;10009615;29;20208;-77
2022/05/21 04:23:29;;;;;;;16.23;5.60;;;;;11.50;101640.00;;;;10025478;29;20225;-77
2022/05/21 04:28:34;;;;;;;14.40;4.40;;;;;11.70;101641.00;;;;10026266;29;20572;-77
2022/05/21 04:33:35;;;;;;;9.37;5.20;;;;;12.10;101633.00;;;;10030570;29;20208;-77
2022/05/21 04:38:37;;;;;;;18.20;5.33;;;;;12.40;101629.00;;;;10009029;29;20284;-77
2022/05/21 04:43:39;;;;;;;12.20;4.63;;;;;12.60;101616.00;;;;10023777;29;20268;-77
2022/05/21 04:48:42;;;;;;;24.43;5.73;;;;;12.80;101619.00;;;;10022293;29;20209;-77
2022/05/21 04:54:04;;;;;;;10.33;4.43;;;;;12.90;101625.00;;;;10040323;29;20201;-77
2022/05/21 04:59:08;;;;;;;13.40;5.17;;;;;13.00;101626.00;;;;10040267;29;20196;-77
2022/05/21 05:04:10;;;;;;;13.47;4.00;;;;;13.10;101634.00;;;;10012351;29;20323;-77
2022/05/21 05:09:12;;;;;;;12.00;4.70;;;;;13.50;101632.00;;;;10038850;29;20225;-77
2022/05/21 05:14:14;;;;;;;18.73;4.67;;;;;13.60;101622.00;;;;10023460;29;20733;-77
2022/05/21 05:19:16;;;;;;;13.70;4.53;;;;;13.80;101630.00;;;;10015766;29;20222;-77
2022/05/21 05:24:18;;;;;;;7.43;4.07;;;;;14.00;101635.00;;;;10008334;29;20629;-76
2022/05/21 05:29:20;;;;;;;16.63;4.70;;;;;14.60;101640.00;;;;10020895;29;20222;-77
2022/05/21 05:34:24;;;;;;;13.97;4.90;;;;;14.50;101639.00;;;;10003127;29;20197;-77
2022/05/21 05:39:26;;;;;;;11.73;3.70;;;;;14.50;101635.00;;;;10018487;29;20257;-77
2022/05/21 05:44:28;;;;;;;16.23;4.87;;;;;14.70;101646.00;;;;10035701;29;20232;-76
2022/05/21 05:49:30;;;;;;;14.20;4.00;;;;;14.60;101647.00;;;;9993105;29;20731;-77
2022/05/21 05:54:33;;;;;;;14.90;4.57;;;;;15.70;101655.00;;;;10041794;29;20237;-77
2022/05/21 05:59:48;;;;;;;15.60;4.03;;;;;16.30;101657.00;;;;10027473;29;20203;-77
2022/05/21 06:04:50;;;;;;;14.30;3.67;;;;;16.80;101667.00;;;;10037925;29;20236;-77
2022/05/21 06:09:52;;;;;;;9.45;3.58;;;;;17.50;101679.00;;;;10030309;29;20627;-77
2022/05/21 06:14:54;;;;;;;11.50;3.47;;;;;17.00;101673.00;;;;10018673;29;20201;-77
2022/05/21 06:19:56;;;;;;;14.03;4.33;;;;;16.70;101683.00;;;;10051460;29;20197;-77
2022/05/21 06:24:58;;;;;;;20.70;4.13;;;;;16.50;101682.00;;;;10023447;29;20201;-77
2022/05/21 06:30:04;;;;;;;17.20;4.72;;;;;16.80;101671.00;;;;10020016;29;20224;-77
2022/05/21 06:35:07;;;;;;;10.67;4.60;;;;;16.80;101678.00;;;;10015046;29;20276;-78
2022/05/21 06:40:11;;;;;;;11.80;4.63;;;;;17.40;101683.00;;;;10008974;29;20224;-77
2022/05/21 06:45:13;;;;;;;15.35;4.38;;;;;17.40;101704.00;;;;10038289;29;20240;-77
2022/05/21 06:50:15;;;;;;;10.52;4.28;;;;;17.20;101711.00;;;;9995464;29;20222;-77
2022/05/21 06:55:17;;;;;;;11.93;4.57;;;;;17.60;101695.00;;;;10016983;29;20233;-77
2022/05/21 07:00:23;;;;;;;16.33;5.13;;;;;18.90;101710.00;;;;10039650;29;20229;-77
2022/05/21 07:10:47;;;;;;;15.88;5.35;;;;;18.80;101718.00;;;;10020240;29;20227;-77
2022/05/21 07:15:50;;;;;;;9.02;4.55;;;;;20.00;101720.00;;;;10038447;29;20193;-77
2022/05/21 07:20:54;;;;;;;11.30;4.47;;;;;19.30;101731.00;;;;10035682;29;20202;-78
2022/05/21 07:25:59;;;;;;;17.98;4.88;;;;;20.10;101723.00;;;;10008823;29;20189;-77
2022/05/21 07:31:01;;;;;;;13.45;4.88;;;;;20.40;101736.00;;;;10054740;29;20220;-78
2022/05/21 07:36:03;;;;;;;14.48;5.13;;;;;20.60;101746.00;;;;10034349;29;20197;-78
2022/05/21 07:41:06;;;;;;;11.77;4.05;;;;;20.50;101747.00;;;;10021026;29;20232;-78
2022/05/21 07:46:08;;;;;;;12.93;4.40;;;;;21.50;101758.00;;;;10008506;29;20204;-78
2022/05/21 07:51:10;;;;;;;9.88;3.40;;;;;21.60;101761.00;;;;10017470;29;20756;-77
2022/05/21 07:56:13;;;;;;;11.38;3.50;;;;;20.50;101754.00;;;;10002651;29;20213;-77
2022/05/21 08:01:16;;;;;;;10.02;3.83;;;;;21.70;101759.00;;;;10041907;29;20225;-77
2022/05/21 08:06:20;;;;;;;9.77;3.38;;;;;20.70;101762.00;;;;10058277;29;20209;-78
2022/05/21 08:11:22;;;;;;;10.70;3.25;;;;;20.10;101746.00;;;;10048616;29;20659;-78
2022/05/21 08:16:24;;;;;;;11.90;3.53;;;;;22.00;101749.00;;;;10045517;29;20208;-78
2022/05/21 08:21:26;;;;;;;10.95;3.28;;;;;23.00;101757.00;;;;10020941;29;20245;-78
2022/05/21 08:31:48;;;;;;;10.98;3.00;;;;;23.10;101753.00;;;;10032669;29;20228;-78
2022/05/21 08:36:50;;;;;;;10.57;2.92;;;;;22.60;101761.00;;;;9995232;29;20676;-79
2022/05/21 08:41:56;;;;;;;13.63;3.38;;;;;22.70;101749.00;;;;10023217;29;20197;-77
2022/05/21 08:47:13;;;;;;;8.80;3.00;;;;;22.20;101756.00;;;;10042224;29;20197;-78
2022/05/21 08:52:37;;;;;;;10.73;3.50;;;;;20.50;101743.00;;;;10031666;29;20209;-79
2022/05/21 08:57:44;;;;;;;13.65;2.58;;;;;21.80;101741.00;;;;10022292;29;20228;-79
2022/05/21 09:02:48;;;;;;;6.65;2.30;;;;;23.00;101746.00;;;;10014313;29;20249;-78
2022/05/21 09:07:54;;;;;;;8.95;2.78;;;;;22.80;101744.00;;;;10026117;29;20725;-78
2022/05/21 09:13:05;;;;;;;10.38;2.85;;;;;24.30;101755.00;;;;10022079;29;20229;-76
2022/05/21 09:18:10;;;;;;;8.68;2.75;;;;;24.00;101760.00;;;;10039012;29;20245;-77
2022/05/21 09:23:12;;;;;;;12.50;3.30;;;;;24.60;101728.00;;;;10031402;29;20202;-78
2022/05/21 09:28:20;;;;;;;8.23;3.28;;;;;23.70;101738.00;;;;10006096;29;20253;-78
2022/05/21 09:33:35;;;;;;;9.13;2.58;;;;;24.50;101736.00;;;;10036257;29;20201;-79
2022/05/21 09:38:52;;;;;;;11.60;2.58;;;;;24.30;101739.00;;;;10027981;29;20737;-79
2022/05/21 09:49:35;;;;;;;10.30;2.45;;;;;23.20;101733.00;;;;10028703;29;20271;-79
2022/05/21 09:54:43;;;;;;;8.93;2.75;;;;;22.30;101738.00;;;;10019321;29;20723;-79
2022/05/21 10:00:01;;;;;;;8.63;2.55;;;;;23.70;101739.00;;;;10021398;29;20545;-78
2022/05/21 10:05:18;;;;;;;9.30;2.72;;;;;22.60;101734.00;;;;10012708;29;20288;-79
2022/05/21 10:16:19;;;;;;;9.40;2.88;;;;;23.20;101728.00;;;;10028676;29;20269;-78
2022/05/21 10:21:28;;;;;;;10.45;2.70;;;;;23.90;101740.00;;;;10031385;29;20228;-78
2022/05/21 10:26:55;;;;;;;8.93;2.35;;;;;23.40;101741.00;;;;10030768;29;20201;-79
2022/05/21 10:32:19;;;;;;;7.72;2.60;;;;;24.40;101730.00;;;;10049851;29;20212;-78
2022/05/21 10:37:24;;;;;;;8.38;2.20;;;;;26.00;101739.00;;;;10030356;29;20193;-79
2022/05/21 10:42:54;;;;;;;9.32;2.13;;;;;25.70;101733.00;;;;10017101;29;20700;-78
2022/05/21 10:48:32;;;;;;;9.32;2.40;;;;;25.30;101738.00;;;;10011542;29;20224;-79
2022/05/21 10:53:58;;;;;;;7.30;2.25;;;;;25.00;101725.00;;;;10024942;29;20205;-78
2022/05/21 10:59:16;;;;;;;11.07;2.50;;;;;26.60;101721.00;;;;10059452;29;20572;-79
2022/05/21 11:04:30;;;;;;;8.57;2.50;;;;;27.70;101713.00;;;;10031986;29;20225;-78
2022/05/21 11:09:45;;;;;;;7.72;1.85;;;;;26.90;101716.00;;;;10057710;29;20212;-78
2022/05/21 11:14:54;;;;;;;6.88;2.50;;;;;25.00;101713.00;;;;10032317;29;20637;-79
2022/05/21 11:20:19;;;;;;;7.68;2.35;;;;;24.30;101717.00;;;;10022869;29;20194;-79
2022/05/21 11:25:27;;;;;;;7.30;2.67;;;;;25.20;101719.00;;;;10055123;29;20240;-79
2022/05/21 11:30:30;;;;;;;7.35;2.15;;;;;23.10;101728.00;;;;10047249;29;20881;-78
2022/05/21 11:41:25;;;;;;;4.38;1.45;;;;;24.10;101704.00;;;;10028024;29;20194;-79
2022/05/21 11:46:38;;;;;;;5.07;1.77;;;;;25.20;101714.00;;;;10032381;29;20630;-78
2022/05/21 11:51:40;;;;;;;10.13;2.45;;;;;24.00;101712.00;;;;10036095;29;20241;-79
2022/05/21 11:57:03;;;;;;;6.80;1.75;;;;;23.60;101701.00;;;;10052854;29;20235;-79
2022/05/21 12:02:20;;;;;;;9.07;2.25;;;;;25.10;101704.00;;;;10024734;29;20258;-79
2022/05/21 12:07:40;;;;;;;6.18;1.73;;;;;23.60;101697.00;;;;10020901;29;20205;-80
2022/05/21 12:13:16;;;;;;;4.13;1.73;;;;;22.60;101707.00;;;;10022463;29;20207;-79
2022/05/21 12:18:30;;;;;;;6.55;1.90;;;;;24.40;101690.00;;;;10016095;29;20201;-77
2022/05/21 12:23:32;;;;;;;6.70;1.85;;;;;25.30;101687.00;;;;10026976;29;20200;-79
2022/05/21 12:28:44;;;;;;;7.10;1.85;;;;;26.70;101686.00;;;;10017440;29;20201;-79
2022/05/21 12:33:54;;;;;;;5.20;1.70;;;;;26.30;101683.00;;;;10001468;29;20212;-80
2022/05/21 12:39:02;;;;;;;4.85;1.95;;;;;24.60;101682.00;;;;10029959;29;20283;-80
2022/05/21 12:44:05;;;;;;;5.53;1.70;;;;;25.00;101672.00;;;;10006304;29;20217;-80
2022/05/21 12:49:11;;;;;;;9.02;2.00;;;;;26.20;101649.00;;;;10027264;29;20216;-80
2022/05/21 12:54:20;;;;;;;5.07;1.67;;;;;25.70;101647.00;;;;10024393;29;20259;-79
2022/05/21 12:59:29;;;;;;;4.50;1.30;;;;;26.50;101647.00;;;;10002701;29;20201;-79
2022/05/21 13:04:39;;;;;;;6.22;1.92;;;;;26.00;101644.00;;;;9986498;29;20281;-80
2022/05/21 13:09:52;;;;;;;7.30;1.95;;;;;26.50;101652.00;;;;10057881;29;20224;-79
2022/05/21 13:14:54;;;;;;;7.32;1.80;;;;;27.00;101639.00;;;;10049444;29;20216;-80
2022/05/21 13:20:23;;;;;;;4.78;1.75;;;;;27.80;101640.00;;;;10050498;29;20274;-77
2022/05/21 13:25:25;;;;;;;4.32;1.23;;;;;28.00;101637.00;;;;10051362;29;20606;-79
2022/05/21 13:30:35;;;;;;;5.57;1.90;;;;;28.80;101627.00;;;;10038752;29;20305;-79
2022/05/21 13:35:40;;;;;;;6.55;1.80;;;;;29.90;101630.00;;;;10034776;29;20252;-79
2022/05/21 13:40:52;;;;;;;4.78;1.40;;;;;28.00;101617.00;;;;10032820;29;20193;-79
2022/05/21 13:45:56;;;;;;;5.68;1.48;;;;;29.30;101629.00;;;;10026360;29;20204;-79
2022/05/21 13:50:59;;;;;;;3.47;1.60;;;;;30.10;101601.00;;;;10045500;29;20231;-79
2022/05/21 13:56:04;;;;;;;5.10;1.50;;;;;30.30;101616.00;;;;10041769;29;20277;-79
2022/05/21 14:01:27;;;;;;;3.70;1.83;;;;;29.30;101594.00;;;;10051798;29;20258;-79
2022/05/21 14:06:29;;;;;;;3.50;1.30;;;;;32.30;101592.00;;;;10065726;29;20226;-80
2022/05/21 14:11:33;;;;;;;2.78;1.35;;;;;28.80;101597.00;;;;9979485;29;20246;-79
2022/05/21 14:16:44;;;;;;;7.38;1.95;;;;;26.90;101608.00;;;;10032781;29;20264;-79
2022/05/21 14:22:03;;;;;;;4.05;1.48;;;;;31.60;101586.00;;;;10037372;29;20195;-80
2022/05/21 14:27:14;;;;;;;7.25;1.90;;;;;32.80;101585.00;;;;10008093;29;20209;-80
2022/05/21 14:32:27;;;;;;;7.88;2.10;;;;;33.60;101583.00;;;;10026796;29;20209;-80
2022/05/21 14:37:31;;;;;;;5.22;1.92;;;;;32.10;101581.00;;;;10030545;29;20197;-80
2022/05/21 14:42:33;;;;;;;5.47;1.50;;;;;34.10;101571.00;;;;10027336;29;20220;-79
2022/05/21 14:47:53;;;;;;;6.22;1.65;;;;;36.10;101558.00;;;;10007475;29;20225;-80
2022/05/21 14:52:59;;;;;;;6.13;2.13;;;;;33.40;101576.00;;;;10008597;29;20224;-78
2022/05/21 14:58:01;;;;;;;5.80;1.80;;;;;29.30;101571.00;;;;10023763;29;20205;-78
2022/05/21 15:03:04;;;;;;;4.43;1.83;;;;;28.80;101535.00;;;;10032348;29;20239;-78
2022/05/21 15:08:07;;;;;;;7.32;2.03;;;;;29.40;101546.00;;;;10048636;29;20570;-78
2022/05/21 15:13:09;;;;;;;4.72;1.67;;;;;31.00;101539.00;;;;10036685;29;20288;-78
2022/05/21 15:18:12;;;;;;;5.18;1.83;;;;;34.30;101533.00;;;;10079828;29;20249;-79
2022/05/21 15:23:14;;;;;;;5.47;2.40;;;;;32.10;101549.00;;;;10031942;29;20253;-78
2022/05/21 15:28:19;;;;;;;8.65;2.00;;;;;33.80;101539.00;;;;10052407;29;20570;-79
2022/05/21 15:33:21;;;;;;;4.90;1.73;;;;;32.80;101524.00;;;;10032739;29;20221;-79
2022/05/21 15:38:23;;;;;;;7.22;1.70;;;;;27.60;101534.00;;;;10029546;29;20208;-78
2022/05/21 15:43:25;;;;;;;5.88;1.90;;;;;24.40;101531.00;;;;10034486;29;20252;-79
2022/05/21 15:48:28;;;;;;;5.90;1.88;;;;;23.80;101515.00;;;;10035280;29;20296;-77
2022/05/21 15:53:30;;;;;;;6.03;1.77;;;;;23.90;101505.00;;;;10010807;29;20214;-79
2022/05/21 15:58:32;;;;;;;6.40;1.70;;;;;24.30;101501.00;;;;10027114;29;20225;-78
2022/05/21 16:03:34;;;;;;;6.88;1.80;;;;;25.30;101482.00;;;;10044412;29;20233;-77
2022/05/21 16:08:36;;;;;;;4.50;1.60;;;;;24.80;101478.00;;;;10048841;29;20197;-78
2022/05/21 16:13:38;;;;;;;5.53;1.65;;;;;24.50;101474.00;;;;10023019;29;20310;-78
2022/05/21 16:18:43;;;;;;;6.38;1.83;;;;;23.90;101474.00;;;;10039988;29;20201;-79
2022/05/21 16:23:46;;;;;;;3.40;1.55;;;;;23.00;101477.00;;;;10049010;29;20557;-79
2022/05/21 16:28:47;;;;;;;2.53;1.33;;;;;22.80;101473.00;;;;10048098;29;20197;-79
2022/05/21 16:33:50;;;;;;;6.68;1.90;;;;;22.70;101460.00;;;;10063931;29;20216;-79
2022/05/21 16:38:52;;;;;;;6.45;1.50;;;;;22.50;101463.00;;;;10030893;29;20198;-79
2022/05/21 16:43:54;;;;;;;2.90;1.40;;;;;22.70;101458.00;;;;10032411;29;20567;-78
2022/05/21 16:48:56;;;;;;;8.95;1.80;;;;;22.60;101459.00;;;;10017596;29;20564;-78
2022/05/21 16:53:57;;;;;;;6.95;2.25;;;;;22.20;101459.00;;;;10046947;29;20217;-78
2022/05/21 16:59:00;;;;;;;8.40;1.80;;;;;22.20;101456.00;;;;10032285;29;20644;-78
2022/05/21 17:04:01;;;;;;;4.93;1.77;;;;;22.00;101449.00;;;;10031576;29;20221;-78
2022/05/21 17:09:04;;;;;;;4.97;1.83;;;;;21.90;101447.00;;;;10013820;29;20211;-78
2022/05/21 17:14:06;;;;;;;5.70;2.03;;;;;22.20;101443.00;;;;10031635;29;20212;-78
2022/05/21 17:19:09;;;;;;;5.82;2.00;;;;;22.40;101434.00;;;;10050678;29;20269;-77
2022/05/21 17:24:12;;;;;;;7.60;2.00;;;;;22.10;101442.00;;;;10030753;29;20193;-78
2022/05/21 17:34:35;;;;;;;7.68;2.85;;;;;21.60;101440.00;;;;10031158;29;20201;-77
2022/05/21 17:39:37;;;;;;;8.73;1.65;;;;;21.10;101440.00;;;;10016664;29;20249;-78
2022/05/21 17:44:39;;;;;;;4.32;1.73;;;;;20.70;101441.00;;;;10049187;29;20664;-79
2022/05/21 17:49:41;;;;;;;5.40;1.60;;;;;20.70;101443.00;;;;10048156;29;20207;-77
2022/05/21 17:54:43;;;;;;;6.35;1.80;;;;;20.70;101447.00;;;;10044942;29;20217;-78
2022/05/21 17:59:45;;;;;;;7.13;1.83;;;;;20.80;101443.00;;;;10061935;29;20224;-77
2022/05/21 18:04:50;;;;;;;6.25;1.65;;;;;20.80;101439.00;;;;10030910;29;20235;-78
2022/05/21 18:09:52;;;;;;;6.63;2.10;;;;;20.70;101445.00;;;;10014209;29;20216;-78
2022/05/21 18:14:56;;;;;;;5.18;1.55;;;;;20.60;101436.00;;;;10013034;29;20690;-78
2022/05/21 18:19:58;;;;;;;4.50;1.60;;;;;20.20;101442.00;;;;10037994;29;20304;-78
2022/05/21 18:24:59;;;;;;;7.32;1.55;;;;;19.80;101443.00;;;;10046462;29;20249;-78
2022/05/21 18:30:03;;;;;;;4.93;1.52;;;;;19.40;101455.00;;;;10030920;29;20221;-77
2022/05/21 18:35:06;;;;;;;5.85;2.03;;;;;19.10;101445.00;;;;10041820;29;20209;-77
2022/05/21 18:40:08;;;;;;;4.22;1.70;;;;;18.90;101451.00;;;;10052945;29;20204;-77
2022/05/21 18:45:10;;;;;;;7.75;1.85;;;;;19.00;101452.00;;;;10037479;29;20287;-78
2022/05/21 18:50:34;;;;;;;4.93;2.45;;;;;19.10;101446.00;;;;10039397;29;20217;-77
2022/05/21 18:55:37;;;;;;;8.20;2.95;;;;;19.00;101450.00;;;;10030138;29;20220;-78
2022/05/21 19:00:39;;;;;;;9.93;3.15;;;;;18.80;101453.00;;;;10040746;29;20205;-77
2022/05/21 19:05:42;;;;;;;10.95;4.03;;;;;18.70;101442.00;;;;10036182;29;20221;-78
2022/05/21 19:10:45;;;;;;;9.70;3.38;;;;;18.50;101447.00;;;;10035348;29;20221;-77
2022/05/21 19:15:52;;;;;;;12.00;3.65;;;;;18.10;101451.00;;;;10046789;29;20249;-77
2022/05/21 19:20:54;;;;;;;12.23;4.20;;;;;17.80;101455.00;;;;10072902;29;20204;-78
2022/05/21 19:25:56;;;;;;;10.35;3.75;;;;;17.50;101459.00;;;;10036663;29;20197;-77
2022/05/21 19:30:58;;;;;;;12.52;3.55;;;;;17.30;101460.00;;;;9996325;29;20212;-78
2022/05/21 19:36:00;;;;;;;12.88;3.92;;;;;17.00;101481.00;;;;10035313;29;20200;-78
2022/05/21 19:41:11;;;;;;;14.90;4.70;;;;;16.80;101476.00;;;;10050547;29;20190;-78
2022/05/21 19:46:17;;;;;;;12.98;3.72;;;;;16.60;101482.00;;;;10032956;29;20668;-78
2022/05/21 19:51:20;;;;;;;10.33;3.97;;;;;16.40;101494.00;;;;10035254;29;20228;-78
2022/05/21 19:56:22;;;;;;;10.55;3.67;;;;;16.20;101493.00;;;;10018024;29;20201;-78
2022/05/21 20:01:24;;;;;;;12.17;3.60;;;;;16.00;101492.00;;;;10033569;29;20279;-78
2022/05/21 20:06:27;;;;;;;15.17;4.57;;;;;15.90;101505.00;;;;10013053;29;20238;-78
2022/05/21 20:11:29;;;;;;;13.97;4.10;;;;;15.70;101506.00;;;;10012190;29;20332;-77
2022/05/21 20:16:35;;;;;;;14.03;4.10;;;;;15.60;101523.00;;;;10003069;29;20242;-78
2022/05/21 20:21:56;;;;;;;15.50;4.90;;;;;15.40;101517.00;;;;10023233;29;20201;-78
2022/05/21 20:27:01;;;;;;;8.50;4.00;;;;;15.40;101512.00;;;;10034091;29;20193;-78
2022/05/21 20:32:03;;;;;;;13.37;4.37;;;;;15.20;101511.00;;;;10058429;29;20217;-78
2022/05/21 20:37:05;;;;;;;12.90;4.43;;;;;15.00;101511.00;;;;10048765;29;20233;-77
2022/05/21 20:42:09;;;;;;;10.90;4.40;;;;;14.80;101506.00;;;;10018979;29;20198;-77
2022/05/21 20:47:13;;;;;;;17.63;4.93;;;;;14.60;101505.00;;;;9995289;29;20291;-76
2022/05/21 20:52:18;;;;;;;13.57;4.60;;;;;14.40;101503.00;;;;9994747;29;20237;-77
2022/05/21 20:57:22;;;;;;;12.33;5.73;;;;;14.30;101499.00;;;;9979463;29;20202;-77
2022/05/21 21:02:28;;;;;;;15.07;5.80;;;;;14.20;101496.00;;;;10050860;29;20295;-77
2022/05/21 21:07:31;;;;;;;17.20;6.03;;;;;14.10;101486.00;;;;10049216;29;20284;-76
2022/05/21 21:12:33;;;;;;;15.97;5.90;;;;;14.00;101483.00;;;;10029134;29;20221;-77
2022/05/21 21:17:35;;;;;;;11.10;5.47;;;;;13.90;101472.00;;;;10020235;29;20250;-77
2022/05/21 21:22:38;;;;;;;19.57;10.00;;;;;13.90;101488.00;;;;10027803;29;20201;-77
2022/05/21 21:27:40;;;;;;;13.53;7.77;;;;;13.80;101481.00;;;;10058840;29;20660;-77
2022/05/21 21:32:42;;;;;;;16.60;8.27;;;;;13.70;101483.00;;;;10011403;29;20221;-77
2022/05/21 21:37:44;;;;;;;9.90;4.23;;;;;13.60;101483.00;;;;10028387;29;20212;-77
2022/05/21 21:42:46;;;;;;;8.60;3.87;;;;;13.60;101466.00;;;;10043677;29;20657;-78
2022/05/21 21:47:48;;;;;;;11.07;3.77;;;;;13.50;101464.00;;;;10027991;29;20573;-77
2022/05/21 21:52:50;;;;;;;9.87;5.00;;;;;13.40;101473.00;;;;10009705;29;20213;-77
2022/05/21 22:01:23;;;;;;;8.70;4.17;;;;;13.30;101466.00;;;;10011926;29;20233;-76
2022/05/21 22:03:14;;;;;;;10.20;4.53;;;;;13.10;101466.00;;;;10056459;29;20229;-76
2022/05/21 22:08:16;;;;;;;10.80;4.10;;;;;13.00;101466.00;;;;10010924;29;20197;-76
2022/05/21 22:13:18;;;;;;;6.70;3.47;;;;;13.00;101460.00;;;;10047174;29;20269;-77
2022/05/21 22:18:20;;;;;;;5.97;3.50;;;;;12.90;101471.00;;;;10001366;29;20225;-77
2022/05/21 22:23:22;;;;;;;11.43;3.93;;;;;12.90;101471.00;;;;10000112;29;20200;-77
2022/05/21 22:28:24;;;;;;;11.10;4.47;;;;;12.80;101455.00;;;;10021498;29;20201;-77
2022/05/21 22:33:26;;;;;;;9.03;3.90;;;;;12.80;101449.00;;;;10057381;29;20308;-77
2022/05/21 22:38:33;;;;;;;9.50;3.73;;;;;12.70;101444.00;;;;10053671;29;20616;-77
2022/05/21 22:43:36;;;;;;;10.27;4.23;;;;;12.50;101455.00;;;;10037755;29;20203;-77
2022/05/21 22:48:39;;;;;;;8.20;4.20;;;;;12.50;101456.00;;;;10046428;29;20198;-77
2022/05/21 22:53:41;;;;;;;10.13;3.90;;;;;12.50;101436.00;;;;9999040;29;20607;-77
2022/05/21 22:58:47;;;;;;;10.90;4.13;;;;;12.40;101427.00;;;;10032570;29;20205;-77
2022/05/21 23:03:49;;;;;;;14.97;4.83;;;;;12.30;101426.00;;;;10036498;29;20577;-77
2022/05/21 23:08:51;;;;;;;11.33;5.40;;;;;12.30;101420.00;;;;10021157;29;20229;-77
2022/05/21 23:19:13;;;;;;;9.40;4.90;;;;;12.20;101423.00;;;;10031315;29;20193;-77
2022/05/21 23:24:15;;;;;;;9.97;4.97;;;;;12.10;101428.00;;;;10026924;29;20233;-77
2022/05/21 23:29:17;;;;;;;10.33;4.93;;;;;12.00;101406.00;;;;10039193;29;20200;-77
2022/05/21 23:34:19;;;;;;;10.50;5.47;;;;;11.90;101396.00;;;;10028573;29;20625;-77
2022/05/21 23:39:21;;;;;;;9.23;5.37;;;;;11.80;101408.00;;;;10013595;29;20226;-77
2022/05/21 23:44:23;;;;;;;10.97;5.03;;;;;11.70;101408.00;;;;10028062;29;20197;-76
2022/05/21 23:49:27;;;;;;;14.17;7.13;;;;;11.70;101406.00;;;;10043910;29;20235;-77
2022/05/21 23:54:29;;;;;;;10.80;6.43;;;;;11.60;101406.00;;;;10027617;29;20260;-77
2022/05/21 23:59:35;;;;;;;10.50;6.37;;;;;11.60;101416.00;;;;10014850;29;20201;-77
